sensor_id;sensor_type;location;lat;lon;timestamp;pressure;altitude;pressure_sealevel;temperature;humidity
28167;BME280;15455;53.376;-6.262;2023-07-16T00:01:13;99655.44;;;12.50;100.00
28167;BME280;15455;53.376;-6.262;2023-07-16T00:03:58;99666.75;;;12.50;100.00
28167;BME280;15455;53.376;-6.262;2023-07-16T00:06:45;99675.53;;;12.49;100.00
28167;BME280;15455;53.376;-6.262;2023-07-16T00:09:31;99677.31;;;12.47;100.00
28167;BME280;15455;53.376;-6.262;2023-07-16T00:12:16;99690.41;;;12.47;100.00
28167;BME280;15455;53.376;-6.262;2023-07-16T00:15:02;99682.53;;;12.47;100.00
28167;BME280;15455;53.376;-6.262;2023-07-16T00:17:48;99679.97;;;12.46;100.00
28167;BME280;15455;53.376;-6.262;2023-07-16T00:20:34;99684.44;;;12.42;100.00
28167;BME280;15455;53.376;-6.262;2023-07-16T00:23:19;99694.97;;;12.39;100.00
28167;BME280;15455;53.376;-6.262;2023-07-16T00:26:04;99694.97;;;12.39;100.00
28167;BME280;15455;53.376;-6.262;2023-07-16T00:28:49;99696.66;;;12.42;100.00
28167;BME280;15455;53.376;-6.262;2023-07-16T00:31:35;99707.16;;;12.40;100.00
28167;BME280;15455;53.376;-6.262;2023-07-16T00:34:20;99702.81;;;12.41;100.00
28167;BME280;15455;53.376;-6.262;2023-07-16T00:37:06;99714.09;;;12.43;100.00
28167;BME280;15455;53.376;-6.262;2023-07-16T00:39:51;99710.66;;;12.41;100.00
28167;BME280;15455;53.376;-6.262;2023-07-16T00:42:36;99716.78;;;12.40;100.00
28167;BME280;15455;53.376;-6.262;2023-07-16T00:45:22;99717.69;;;12.39;100.00
28167;BME280;15455;53.376;-6.262;2023-07-16T00:48:08;99718.53;;;12.39;100.00
28167;BME280;15455;53.376;-6.262;2023-07-16T00:50:53;99723.75;;;12.39;100.00
28167;BME280;15455;53.376;-6.262;2023-07-16T00:53:41;99726.38;;;12.39;100.00
28167;BME280;15455;53.376;-6.262;2023-07-16T00:56:28;99728.22;;;12.36;100.00
28167;BME280;15455;53.376;-6.262;2023-07-16T00:59:14;99743.97;;;12.34;100.00
28167;BME280;15455;53.376;-6.262;2023-07-16T01:02:00;99732.63;;;12.35;100.00
28167;BME280;15455;53.376;-6.262;2023-07-16T01:04:45;99750.09;;;12.33;100.00
28167;BME280;15455;53.376;-6.262;2023-07-16T01:07:31;99751.81;;;12.34;100.00
28167;BME280;15455;53.376;-6.262;2023-07-16T01:10:19;99752.66;;;12.34;100.00
28167;BME280;15455;53.376;-6.262;2023-07-16T01:13:06;99752.66;;;12.34;100.00
28167;BME280;15455;53.376;-6.262;2023-07-16T01:15:51;99763.13;;;12.34;100.00
28167;BME280;15455;53.376;-6.262;2023-07-16T01:18:37;99762.31;;;12.32;100.00
28167;BME280;15455;53.376;-6.262;2023-07-16T01:21:23;99763.16;;;12.33;100.00
28167;BME280;15455;53.376;-6.262;2023-07-16T01:30:20;99785.00;;;12.32;100.00
28167;BME280;15455;53.376;-6.262;2023-07-16T01:33:10;99786.81;;;12.30;100.00
28167;BME280;15455;53.376;-6.262;2023-07-16T01:35:58;99790.25;;;12.30;100.00
28167;BME280;15455;53.376;-6.262;2023-07-16T01:38:45;99787.72;;;12.27;100.00
28167;BME280;15455;53.376;-6.262;2023-07-16T01:41:31;99787.84;;;12.23;100.00
28167;BME280;15455;53.376;-6.262;2023-07-16T01:44:16;99795.91;;;12.15;100.00
28167;BME280;15455;53.376;-6.262;2023-07-16T01:47:36;99800.44;;;12.07;100.00
28167;BME280;15455;53.376;-6.262;2023-07-16T01:50:17;99806.75;;;11.98;100.00
28167;BME280;15455;53.376;-6.262;2023-07-16T01:53:02;99825.13;;;11.95;100.00
28167;BME280;15455;53.376;-6.262;2023-07-16T01:55:47;99810.34;;;11.94;100.00
28167;BME280;15455;53.376;-6.262;2023-07-16T01:58:32;99819.03;;;11.94;100.00
28167;BME280;15455;53.376;-6.262;2023-07-16T02:01:18;99823.34;;;11.97;100.00
28167;BME280;15455;53.376;-6.262;2023-07-16T02:04:04;99833.78;;;11.97;100.00
28167;BME280;15455;53.376;-6.262;2023-07-16T02:06:51;99840.72;;;11.99;100.00
28167;BME280;15455;53.376;-6.262;2023-07-16T02:09:40;99841.53;;;12.03;100.00
28167;BME280;15455;53.376;-6.262;2023-07-16T02:12:26;99845.78;;;12.06;100.00
28167;BME280;15455;53.376;-6.262;2023-07-16T02:15:11;99840.56;;;12.06;100.00
28167;BME280;15455;53.376;-6.262;2023-07-16T02:17:57;99850.19;;;12.05;100.00
28167;BME280;15455;53.376;-6.262;2023-07-16T02:20:43;99858.03;;;12.05;100.00
28167;BME280;15455;53.376;-6.262;2023-07-16T02:23:29;99838.91;;;12.03;100.00
28167;BME280;15455;53.376;-6.262;2023-07-16T02:26:14;99847.72;;;11.99;100.00
28167;BME280;15455;53.376;-6.262;2023-07-16T02:29:00;99843.44;;;11.95;100.00
28167;BME280;15455;53.376;-6.262;2023-07-16T02:31:45;99860.94;;;11.90;100.00
28167;BME280;15455;53.376;-6.262;2023-07-16T02:34:34;99856.72;;;11.84;100.00
28167;BME280;15455;53.376;-6.262;2023-07-16T02:37:19;99849.00;;;11.78;100.00
28167;BME280;15455;53.376;-6.262;2023-07-16T02:40:06;99866.53;;;11.74;100.00
28167;BME280;15455;53.376;-6.262;2023-07-16T02:42:52;99873.56;;;11.71;100.00
28167;BME280;15455;53.376;-6.262;2023-07-16T02:45:38;99878.84;;;11.68;100.00
28167;BME280;15455;53.376;-6.262;2023-07-16T02:48:24;99876.31;;;11.64;100.00
28167;BME280;15455;53.376;-6.262;2023-07-16T02:51:09;99877.25;;;11.60;100.00
28167;BME280;15455;53.376;-6.262;2023-07-16T02:53:54;99874.72;;;11.57;100.00
28167;BME280;15455;53.376;-6.262;2023-07-16T02:56:40;99894.78;;;11.55;100.00
28167;BME280;15455;53.376;-6.262;2023-07-16T02:59:25;99885.13;;;11.59;100.00
28167;BME280;15455;53.376;-6.262;2023-07-16T03:02:11;99905.09;;;11.63;100.00
28167;BME280;15455;53.376;-6.262;2023-07-16T03:04:56;99897.19;;;11.66;100.00
28167;BME280;15455;53.376;-6.262;2023-07-16T03:07:42;99894.47;;;11.71;100.00
28167;BME280;15455;53.376;-6.262;2023-07-16T03:10:27;99907.44;;;11.75;100.00
28167;BME280;15455;53.376;-6.262;2023-07-16T03:13:13;99899.59;;;11.75;100.00
28167;BME280;15455;53.376;-6.262;2023-07-16T03:15:59;99894.38;;;11.75;100.00
28167;BME280;15455;53.376;-6.262;2023-07-16T03:18:44;99897.91;;;11.74;100.00
28167;BME280;15455;53.376;-6.262;2023-07-16T03:21:33;99911.94;;;11.69;100.00
28167;BME280;15455;53.376;-6.262;2023-07-16T03:24:18;99917.22;;;11.65;100.00
28167;BME280;15455;53.376;-6.262;2023-07-16T03:27:04;99923.41;;;11.61;100.00
28167;BME280;15455;53.376;-6.262;2023-07-16T03:30:04;99931.22;;;11.63;100.00
28167;BME280;15455;53.376;-6.262;2023-07-16T03:32:49;99936.31;;;11.69;100.00
28167;BME280;15455;53.376;-6.262;2023-07-16T03:35:45;99936.25;;;11.72;100.00
28167;BME280;15455;53.376;-6.262;2023-07-16T03:38:31;99932.75;;;11.73;100.00
28167;BME280;15455;53.376;-6.262;2023-07-16T03:41:16;99946.78;;;11.69;100.00
28167;BME280;15455;53.376;-6.262;2023-07-16T03:44:03;99949.50;;;11.64;100.00
28167;BME280;15455;53.376;-6.262;2023-07-16T03:46:51;99959.94;;;11.64;100.00
28167;BME280;15455;53.376;-6.262;2023-07-16T03:49:36;99962.56;;;11.64;100.00
28167;BME280;15455;53.376;-6.262;2023-07-16T03:52:21;99959.97;;;11.63;100.00
28167;BME280;15455;53.376;-6.262;2023-07-16T03:55:07;99961.72;;;11.62;100.00
28167;BME280;15455;53.376;-6.262;2023-07-16T03:57:53;99976.47;;;11.65;100.00
28167;BME280;15455;53.376;-6.262;2023-07-16T04:00:38;99975.59;;;11.66;100.00
28167;BME280;15455;53.376;-6.262;2023-07-16T04:03:26;99982.59;;;11.64;100.00
28167;BME280;15455;53.376;-6.262;2023-07-16T04:06:12;99991.31;;;11.64;100.00
28167;BME280;15455;53.376;-6.262;2023-07-16T04:08:57;100013.06;;;11.65;100.00
28167;BME280;15455;53.376;-6.262;2023-07-16T04:11:43;100010.41;;;11.68;100.00
28167;BME280;15455;53.376;-6.262;2023-07-16T04:14:28;100016.53;;;11.67;100.00
28167;BME280;15455;53.376;-6.262;2023-07-16T04:17:13;100018.22;;;11.70;100.00
28167;BME280;15455;53.376;-6.262;2023-07-16T04:19:59;100024.22;;;11.75;100.00
28167;BME280;15455;53.376;-6.262;2023-07-16T04:22:44;100021.56;;;11.76;100.00
28167;BME280;15455;53.376;-6.262;2023-07-16T04:25:30;100025.00;;;11.78;100.00
28167;BME280;15455;53.376;-6.262;2023-07-16T04:28:15;100027.59;;;11.80;100.00
28167;BME280;15455;53.376;-6.262;2023-07-16T04:31:01;100031.13;;;11.79;100.00
28167;BME280;15455;53.376;-6.262;2023-07-16T04:33:46;100039.81;;;11.79;100.00
28167;BME280;15455;53.376;-6.262;2023-07-16T04:36:32;100039.75;;;11.82;100.00
28167;BME280;15455;53.376;-6.262;2023-07-16T04:39:17;100043.25;;;11.83;100.00
28167;BME280;15455;53.376;-6.262;2023-07-16T04:42:03;100045.84;;;11.85;100.00
28167;BME280;15455;53.376;-6.262;2023-07-16T04:44:49;100051.88;;;11.87;100.00
28167;BME280;15455;53.376;-6.262;2023-07-16T04:47:34;100059.66;;;11.90;100.00
28167;BME280;15455;53.376;-6.262;2023-07-16T04:50:20;100056.16;;;11.91;100.00
28167;BME280;15455;53.376;-6.262;2023-07-16T04:53:06;100067.44;;;11.94;100.00
28167;BME280;15455;53.376;-6.262;2023-07-16T04:55:51;100070.03;;;11.97;100.00
28167;BME280;15455;53.376;-6.262;2023-07-16T04:58:37;100076.94;;;12.00;100.00
28167;BME280;15455;53.376;-6.262;2023-07-16T05:01:22;100076.91;;;12.03;100.00
28167;BME280;15455;53.376;-6.262;2023-07-16T05:04:07;100077.72;;;12.05;100.00
28167;BME280;15455;53.376;-6.262;2023-07-16T05:06:53;100083.75;;;12.07;100.00
28167;BME280;15455;53.376;-6.262;2023-07-16T05:09:39;100082.00;;;12.09;100.00
28167;BME280;15455;53.376;-6.262;2023-07-16T05:12:24;100093.25;;;12.13;100.00
28167;BME280;15455;53.376;-6.262;2023-07-16T05:15:10;100096.72;;;12.15;100.00
28167;BME280;15455;53.376;-6.262;2023-07-16T05:17:55;100103.63;;;12.18;100.00
28167;BME280;15455;53.376;-6.262;2023-07-16T05:20:43;100107.13;;;12.18;100.00
28167;BME280;15455;53.376;-6.262;2023-07-16T05:23:28;100112.28;;;12.21;100.00
28167;BME280;15455;53.376;-6.262;2023-07-16T05:26:13;100119.22;;;12.24;100.00
28167;BME280;15455;53.376;-6.262;2023-07-16T05:28:59;100120.88;;;12.28;100.00
28167;BME280;15455;53.376;-6.262;2023-07-16T05:31:45;100118.19;;;12.31;100.00
28167;BME280;15455;53.376;-6.262;2023-07-16T05:34:31;100122.53;;;12.32;100.00
28167;BME280;15455;53.376;-6.262;2023-07-16T05:37:18;100133.88;;;12.32;100.00
28167;BME280;15455;53.376;-6.262;2023-07-16T05:40:04;100127.78;;;12.30;100.00
28167;BME280;15455;53.376;-6.262;2023-07-16T05:42:49;100131.28;;;12.31;100.00
28167;BME280;15455;53.376;-6.262;2023-07-16T05:45:36;100135.59;;;12.32;100.00
28167;BME280;15455;53.376;-6.262;2023-07-16T05:48:21;100126.88;;;12.33;100.00
28167;BME280;15455;53.376;-6.262;2023-07-16T05:51:07;100133.84;;;12.34;100.00
28167;BME280;15455;53.376;-6.262;2023-07-16T05:53:52;100144.28;;;12.36;100.00
28167;BME280;15455;53.376;-6.262;2023-07-16T05:56:38;100148.59;;;12.38;100.00
28167;BME280;15455;53.376;-6.262;2023-07-16T05:59:23;100157.19;;;12.43;100.00
28167;BME280;15455;53.376;-6.262;2023-07-16T06:02:08;100161.53;;;12.44;100.00
28167;BME280;15455;53.376;-6.262;2023-07-16T06:04:54;100168.38;;;12.51;100.00
28167;BME280;15455;53.376;-6.262;2023-07-16T06:07:39;100165.56;;;12.61;100.00
28167;BME280;15455;53.376;-6.262;2023-07-16T06:10:24;100164.63;;;12.65;100.00
28167;BME280;15455;53.376;-6.262;2023-07-16T06:13:10;100162.72;;;12.73;100.00
28167;BME280;15455;53.376;-6.262;2023-07-16T06:15:55;100161.66;;;12.82;100.00
28167;BME280;15455;53.376;-6.262;2023-07-16T06:18:40;100158.81;;;12.91;100.00
28167;BME280;15455;53.376;-6.262;2023-07-16T06:21:26;100151.69;;;12.99;100.00
28167;BME280;15455;53.376;-6.262;2023-07-16T06:24:11;100162.00;;;13.06;100.00
28167;BME280;15455;53.376;-6.262;2023-07-16T06:27:01;100159.41;;;13.04;100.00
28167;BME280;15455;53.376;-6.262;2023-07-16T06:29:46;100166.41;;;13.05;100.00
28167;BME280;15455;53.376;-6.262;2023-07-16T06:32:32;100167.25;;;13.07;100.00
28167;BME280;15455;53.376;-6.262;2023-07-16T06:35:17;100170.53;;;13.15;100.00
28167;BME280;15455;53.376;-6.262;2023-07-16T06:38:02;100182.59;;;13.23;100.00
28167;BME280;15455;53.376;-6.262;2023-07-16T06:40:49;100177.31;;;13.24;100.00
28167;BME280;15455;53.376;-6.262;2023-07-16T06:43:35;100182.50;;;13.27;100.00
28167;BME280;15455;53.376;-6.262;2023-07-16T06:46:20;100180.81;;;13.25;100.00
28167;BME280;15455;53.376;-6.262;2023-07-16T06:49:06;100172.00;;;13.27;100.00
28167;BME280;15455;53.376;-6.262;2023-07-16T06:51:52;100184.28;;;13.25;100.00
28167;BME280;15455;53.376;-6.262;2023-07-16T06:54:37;100185.94;;;13.29;100.00
28167;BME280;15455;53.376;-6.262;2023-07-16T06:57:26;100191.97;;;13.34;100.00
28167;BME280;15455;53.376;-6.262;2023-07-16T07:00:12;100191.78;;;13.44;100.00
28167;BME280;15455;53.376;-6.262;2023-07-16T07:02:57;100196.00;;;13.49;100.00
28167;BME280;15455;53.376;-6.262;2023-07-16T07:05:43;100194.06;;;13.58;100.00
28167;BME280;15455;53.376;-6.262;2023-07-16T07:08:28;100201.47;;;13.76;100.00
28167;BME280;15455;53.376;-6.262;2023-07-16T07:11:14;100196.09;;;13.82;100.00
28167;BME280;15455;53.376;-6.262;2023-07-16T07:13:59;100199.69;;;13.78;100.00
28167;BME280;15455;53.376;-6.262;2023-07-16T07:16:45;100209.38;;;13.75;100.00
28167;BME280;15455;53.376;-6.262;2023-07-16T07:19:30;100217.09;;;13.81;100.00
28167;BME280;15455;53.376;-6.262;2023-07-16T07:22:17;100218.66;;;13.88;100.00
28167;BME280;15455;53.376;-6.262;2023-07-16T07:25:06;100220.03;;;14.04;100.00
28167;BME280;15455;53.376;-6.262;2023-07-16T07:27:52;100224.13;;;14.15;100.00
28167;BME280;15455;53.376;-6.262;2023-07-16T07:30:37;100229.22;;;14.21;100.00
28167;BME280;15455;53.376;-6.262;2023-07-16T07:33:23;100219.66;;;14.20;100.00
28167;BME280;15455;53.376;-6.262;2023-07-16T07:36:08;100223.06;;;14.22;100.00
28167;BME280;15455;53.376;-6.262;2023-07-16T07:38:53;100233.38;;;14.30;100.00
28167;BME280;15455;53.376;-6.262;2023-07-16T07:41:39;100234.06;;;14.36;100.00
28167;BME280;15455;53.376;-6.262;2023-07-16T07:44:24;100231.31;;;14.41;100.00
28167;BME280;15455;53.376;-6.262;2023-07-16T07:47:10;100236.50;;;14.44;100.00
28167;BME280;15455;53.376;-6.262;2023-07-16T07:49:55;100254.19;;;14.37;100.00
28167;BME280;15455;53.376;-6.262;2023-07-16T07:52:41;100258.56;;;14.37;100.00
28167;BME280;15455;53.376;-6.262;2023-07-16T07:55:26;100264.78;;;14.33;100.00
28167;BME280;15455;53.376;-6.262;2023-07-16T07:58:12;100259.69;;;14.27;100.00
28167;BME280;15455;53.376;-6.262;2023-07-16T08:01:06;100256.06;;;14.32;100.00
28167;BME280;15455;53.376;-6.262;2023-07-16T08:03:52;100269.84;;;14.40;100.00
28167;BME280;15455;53.376;-6.262;2023-07-16T08:06:38;100255.66;;;14.48;100.00
28167;BME280;15455;53.376;-6.262;2023-07-16T08:09:23;100260.47;;;14.66;100.00
28167;BME280;15455;53.376;-6.262;2023-07-16T08:12:09;100267.84;;;14.83;100.00
28167;BME280;15455;53.376;-6.262;2023-07-16T08:14:56;100270.25;;;14.92;100.00
28167;BME280;15455;53.376;-6.262;2023-07-16T08:17:42;100275.44;;;14.94;100.00
28167;BME280;15455;53.376;-6.262;2023-07-16T08:20:28;100278.88;;;14.96;100.00
28167;BME280;15455;53.376;-6.262;2023-07-16T08:23:13;100274.47;;;14.98;100.00
28167;BME280;15455;53.376;-6.262;2023-07-16T08:25:59;100277.94;;;14.99;100.00
28167;BME280;15455;53.376;-6.262;2023-07-16T08:28:45;100279.91;;;14.90;100.00
28167;BME280;15455;53.376;-6.262;2023-07-16T08:31:30;100280.31;;;14.76;100.00
28167;BME280;15455;53.376;-6.262;2023-07-16T08:34:16;100282.38;;;14.65;100.00
28167;BME280;15455;53.376;-6.262;2023-07-16T08:37:01;100292.97;;;14.62;100.00
28167;BME280;15455;53.376;-6.262;2023-07-16T08:39:46;100297.38;;;14.58;100.00
28167;BME280;15455;53.376;-6.262;2023-07-16T08:42:33;100305.34;;;14.55;100.00
28167;BME280;15455;53.376;-6.262;2023-07-16T08:45:19;100315.16;;;14.49;100.00
28167;BME280;15455;53.376;-6.262;2023-07-16T08:48:08;100321.94;;;14.57;100.00
28167;BME280;15455;53.376;-6.262;2023-07-16T08:50:55;100315.53;;;14.69;100.00
28167;BME280;15455;53.376;-6.262;2023-07-16T08:53:42;100315.50;;;14.71;100.00
28167;BME280;15455;53.376;-6.262;2023-07-16T08:56:28;100313.44;;;14.82;100.00
28167;BME280;15455;53.376;-6.262;2023-07-16T08:59:17;100304.63;;;14.83;100.00
28167;BME280;15455;53.376;-6.262;2023-07-16T09:02:03;100303.50;;;14.92;100.00
28167;BME280;15455;53.376;-6.262;2023-07-16T09:04:49;100305.00;;;15.02;100.00
28167;BME280;15455;53.376;-6.262;2023-07-16T09:07:37;100299.66;;;15.05;100.00
28167;BME280;15455;53.376;-6.262;2023-07-16T09:10:22;100304.03;;;15.05;100.00
28167;BME280;15455;53.376;-6.262;2023-07-16T09:13:09;100302.91;;;15.15;100.00
28167;BME280;15455;53.376;-6.262;2023-07-16T09:15:55;100308.78;;;15.23;100.00
28167;BME280;15455;53.376;-6.262;2023-07-16T09:18:42;100302.88;;;15.45;100.00
28167;BME280;15455;53.376;-6.262;2023-07-16T09:21:27;100308.97;;;15.75;100.00
28167;BME280;15455;53.376;-6.262;2023-07-16T09:24:19;100299.28;;;15.79;100.00
28167;BME280;15455;53.376;-6.262;2023-07-16T09:27:06;100310.91;;;15.70;100.00
28167;BME280;15455;53.376;-6.262;2023-07-16T09:29:51;100311.13;;;15.62;100.00
28167;BME280;15455;53.376;-6.262;2023-07-16T09:32:38;100306.84;;;15.60;100.00
28167;BME280;15455;53.376;-6.262;2023-07-16T09:35:26;100309.78;;;15.49;100.00
28167;BME280;15455;53.376;-6.262;2023-07-16T09:38:12;100312.75;;;15.37;100.00
28167;BME280;15455;53.376;-6.262;2023-07-16T09:40:58;100310.13;;;15.37;100.00
28167;BME280;15455;53.376;-6.262;2023-07-16T09:43:44;100310.44;;;15.57;100.00
28167;BME280;15455;53.376;-6.262;2023-07-16T09:46:30;100308.94;;;15.77;100.00
28167;BME280;15455;53.376;-6.262;2023-07-16T09:49:16;100320.06;;;15.87;100.00
28167;BME280;15455;53.376;-6.262;2023-07-16T09:52:02;100334.00;;;15.90;100.00
28167;BME280;15455;53.376;-6.262;2023-07-16T09:54:50;100323.72;;;15.83;100.00
28167;BME280;15455;53.376;-6.262;2023-07-16T09:57:42;100320.50;;;15.71;100.00
28167;BME280;15455;53.376;-6.262;2023-07-16T10:00:29;100333.06;;;15.63;100.00
28167;BME280;15455;53.376;-6.262;2023-07-16T10:03:15;100326.47;;;15.48;100.00
28167;BME280;15455;53.376;-6.262;2023-07-16T10:06:08;100329.59;;;15.61;100.00
28167;BME280;15455;53.376;-6.262;2023-07-16T10:08:54;100315.13;;;15.76;100.00
28167;BME280;15455;53.376;-6.262;2023-07-16T10:11:40;100319.31;;;15.83;100.00
28167;BME280;15455;53.376;-6.262;2023-07-16T10:14:27;100315.66;;;15.87;100.00
28167;BME280;15455;53.376;-6.262;2023-07-16T10:17:13;100317.06;;;15.99;100.00
28167;BME280;15455;53.376;-6.262;2023-07-16T10:20:02;100325.63;;;16.06;100.00
28167;BME280;15455;53.376;-6.262;2023-07-16T10:22:58;100316.81;;;16.07;100.00
28167;BME280;15455;53.376;-6.262;2023-07-16T10:25:58;100321.88;;;16.13;100.00
28167;BME280;15455;53.376;-6.262;2023-07-16T10:28:44;100325.22;;;16.18;100.00
28167;BME280;15455;53.376;-6.262;2023-07-16T10:31:33;100318.22;;;16.17;100.00
28167;BME280;15455;53.376;-6.262;2023-07-16T10:34:22;100328.03;;;16.13;100.00
28167;BME280;15455;53.376;-6.262;2023-07-16T10:37:08;100329.13;;;16.06;100.00
28167;BME280;15455;53.376;-6.262;2023-07-16T10:39:55;100326.28;;;16.12;100.00
28167;BME280;15455;53.376;-6.262;2023-07-16T10:42:42;100318.59;;;16.33;100.00
28167;BME280;15455;53.376;-6.262;2023-07-16T10:45:29;100323.69;;;16.64;100.00
28167;BME280;15455;53.376;-6.262;2023-07-16T10:48:14;100314.84;;;16.92;100.00
28167;BME280;15455;53.376;-6.262;2023-07-16T10:51:00;100318.47;;;17.13;100.00
28167;BME280;15455;53.376;-6.262;2023-07-16T10:53:46;100327.28;;;17.36;100.00
28167;BME280;15455;53.376;-6.262;2023-07-16T10:56:35;100328.78;;;17.43;100.00
28167;BME280;15455;53.376;-6.262;2023-07-16T10:59:21;100330.69;;;17.40;100.00
28167;BME280;15455;53.376;-6.262;2023-07-16T11:02:12;100344.91;;;17.12;100.00
28167;BME280;15455;53.376;-6.262;2023-07-16T11:04:59;100350.19;;;16.85;100.00
28167;BME280;15455;53.376;-6.262;2023-07-16T11:07:48;100350.78;;;16.68;100.00
28167;BME280;15455;53.376;-6.262;2023-07-16T11:10:39;100355.56;;;16.57;100.00
28167;BME280;15455;53.376;-6.262;2023-07-16T11:13:30;100354.81;;;16.53;100.00
28167;BME280;15455;53.376;-6.262;2023-07-16T11:16:16;100352.56;;;16.67;100.00
28167;BME280;15455;53.376;-6.262;2023-07-16T11:19:06;100363.56;;;17.06;100.00
28167;BME280;15455;53.376;-6.262;2023-07-16T11:21:52;100354.19;;;17.46;100.00
28167;BME280;15455;53.376;-6.262;2023-07-16T11:24:38;100345.06;;;17.54;100.00
28167;BME280;15455;53.376;-6.262;2023-07-16T11:27:30;100343.47;;;17.50;100.00
28167;BME280;15455;53.376;-6.262;2023-07-16T11:30:22;100336.56;;;17.48;100.00
28167;BME280;15455;53.376;-6.262;2023-07-16T11:33:12;100344.03;;;17.59;100.00
28167;BME280;15455;53.376;-6.262;2023-07-16T11:35:57;100333.69;;;17.76;100.00
28167;BME280;15455;53.376;-6.262;2023-07-16T11:38:43;100337.88;;;18.05;100.00
28167;BME280;15455;53.376;-6.262;2023-07-16T11:41:28;100343.88;;;18.09;100.00
28167;BME280;15455;53.376;-6.262;2023-07-16T11:44:14;100343.75;;;17.90;100.00
28167;BME280;15455;53.376;-6.262;2023-07-16T11:46:59;100343.53;;;17.49;100.00
28167;BME280;15455;53.376;-6.262;2023-07-16T11:49:45;100333.50;;;17.59;100.00
28167;BME280;15455;53.376;-6.262;2023-07-16T11:52:30;100335.16;;;18.07;100.00
28167;BME280;15455;53.376;-6.262;2023-07-16T11:55:16;100337.50;;;18.57;100.00
28167;BME280;15455;53.376;-6.262;2023-07-16T11:58:01;100329.56;;;18.99;100.00
28167;BME280;15455;53.376;-6.262;2023-07-16T12:00:48;100337.31;;;19.03;100.00
28167;BME280;15455;53.376;-6.262;2023-07-16T12:03:34;100339.75;;;18.67;100.00
28167;BME280;15455;53.376;-6.262;2023-07-16T12:06:19;100351.28;;;18.44;100.00
28167;BME280;15455;53.376;-6.262;2023-07-16T12:09:04;100352.09;;;18.23;100.00
28167;BME280;15455;53.376;-6.262;2023-07-16T12:11:50;100353.16;;;17.97;100.00
28167;BME280;15455;53.376;-6.262;2023-07-16T12:14:36;100360.59;;;17.86;100.00
28167;BME280;15455;53.376;-6.262;2023-07-16T12:17:21;100352.59;;;18.11;100.00
28167;BME280;15455;53.376;-6.262;2023-07-16T12:20:07;100346.53;;;18.52;100.00
28167;BME280;15455;53.376;-6.262;2023-07-16T12:22:53;100356.09;;;18.97;100.00
28167;BME280;15455;53.376;-6.262;2023-07-16T12:25:38;100346.22;;;19.21;100.00
28167;BME280;15455;53.376;-6.262;2023-07-16T12:28:24;100351.16;;;19.67;100.00
28167;BME280;15455;53.376;-6.262;2023-07-16T12:31:10;100345.97;;;20.04;100.00
28167;BME280;15455;53.376;-6.262;2023-07-16T12:33:55;100366.56;;;19.78;100.00
28167;BME280;15455;53.376;-6.262;2023-07-16T12:36:41;100364.09;;;19.35;100.00
28167;BME280;15455;53.376;-6.262;2023-07-16T12:39:26;100375.00;;;19.08;100.00
28167;BME280;15455;53.376;-6.262;2023-07-16T12:42:12;100367.44;;;18.99;100.00
28167;BME280;15455;53.376;-6.262;2023-07-16T12:44:57;100365.19;;;19.31;100.00
28167;BME280;15455;53.376;-6.262;2023-07-16T12:47:42;100362.19;;;19.77;100.00
28167;BME280;15455;53.376;-6.262;2023-07-16T12:50:28;100372.41;;;20.23;100.00
28167;BME280;15455;53.376;-6.262;2023-07-16T12:53:14;100365.16;;;19.90;100.00
28167;BME280;15455;53.376;-6.262;2023-07-16T12:56:00;100361.34;;;19.76;100.00
28167;BME280;15455;53.376;-6.262;2023-07-16T12:58:47;100357.22;;;19.90;100.00
28167;BME280;15455;53.376;-6.262;2023-07-16T13:01:33;100359.09;;;19.88;100.00
28167;BME280;15455;53.376;-6.262;2023-07-16T13:04:18;100375.31;;;19.80;100.00
28167;BME280;15455;53.376;-6.262;2023-07-16T13:07:04;100368.88;;;19.86;100.00
28167;BME280;15455;53.376;-6.262;2023-07-16T13:09:49;100368.19;;;20.19;100.00
28167;BME280;15455;53.376;-6.262;2023-07-16T13:12:48;100358.78;;;20.30;100.00
28167;BME280;15455;53.376;-6.262;2023-07-16T13:15:34;100366.97;;;20.43;100.00
28167;BME280;15455;53.376;-6.262;2023-07-16T13:18:19;100372.38;;;20.42;100.00
28167;BME280;15455;53.376;-6.262;2023-07-16T13:21:05;100367.63;;;20.48;100.00
28167;BME280;15455;53.376;-6.262;2023-07-16T13:23:50;100391.25;;;20.53;100.00
28167;BME280;15455;53.376;-6.262;2023-07-16T13:26:36;100383.44;;;20.33;100.00
28167;BME280;15455;53.376;-6.262;2023-07-16T13:29:21;100387.53;;;20.21;100.00
28167;BME280;15455;53.376;-6.262;2023-07-16T13:32:07;100387.06;;;19.93;100.00
28167;BME280;15455;53.376;-6.262;2023-07-16T13:34:53;100385.91;;;19.80;100.00
28167;BME280;15455;53.376;-6.262;2023-07-16T13:37:39;100387.34;;;19.87;100.00
28167;BME280;15455;53.376;-6.262;2023-07-16T13:40:25;100383.66;;;20.28;100.00
28167;BME280;15455;53.376;-6.262;2023-07-16T13:43:10;100386.38;;;20.80;100.00
28167;BME280;15455;53.376;-6.262;2023-07-16T13:45:55;100386.69;;;21.09;100.00
28167;BME280;15455;53.376;-6.262;2023-07-16T13:48:40;100387.69;;;21.07;100.00
28167;BME280;15455;53.376;-6.262;2023-07-16T13:51:42;100394.50;;;20.77;98.20
28167;BME280;15455;53.376;-6.262;2023-07-16T13:54:27;100402.34;;;20.25;100.00
28167;BME280;15455;53.376;-6.262;2023-07-16T13:57:13;100395.34;;;19.86;100.00
28167;BME280;15455;53.376;-6.262;2023-07-16T13:59:58;100395.53;;;19.62;100.00
28167;BME280;15455;53.376;-6.262;2023-07-16T14:02:48;100398.84;;;19.27;100.00
28167;BME280;15455;53.376;-6.262;2023-07-16T14:05:34;100394.78;;;19.00;100.00
28167;BME280;15455;53.376;-6.262;2023-07-16T14:08:24;100394.16;;;18.93;100.00
28167;BME280;15455;53.376;-6.262;2023-07-16T14:11:09;100385.66;;;18.85;100.00
28167;BME280;15455;53.376;-6.262;2023-07-16T14:13:55;100390.66;;;18.72;100.00
28167;BME280;15455;53.376;-6.262;2023-07-16T14:16:40;100390.88;;;18.66;100.00